createdAt,value
2018-10-21T00:01:48.827Z,99.90
2018-10-21T00:04:17.280Z,99.90
2018-10-21T00:06:45.745Z,99.90
2018-10-21T00:09:14.306Z,99.90
2018-10-21T00:11:43.023Z,99.90
2018-10-21T00:14:11.436Z,99.90
2018-10-21T00:16:39.882Z,99.90
2018-10-21T00:19:08.333Z,99.90
2018-10-21T00:21:36.806Z,99.90
2018-10-21T00:24:05.562Z,99.90
2018-10-21T00:26:34.002Z,99.90
2018-10-21T00:29:02.592Z,99.90
2018-10-21T00:31:31.058Z,99.90
2018-10-21T00:33:59.484Z,99.90
2018-10-21T00:36:28.057Z,99.90
2018-10-21T00:38:56.525Z,99.90
2018-10-21T00:41:25.144Z,99.90
2018-10-21T00:43:53.581Z,99.90
2018-10-21T00:46:22.018Z,99.90
2018-10-21T00:48:50.567Z,99.90
2018-10-21T00:51:19.155Z,99.90
2018-10-21T00:53:47.630Z,99.90
2018-10-21T00:56:16.081Z,99.90
2018-10-21T00:58:44.746Z,99.90
2018-10-21T01:01:13.435Z,99.90
2018-10-21T01:03:41.950Z,99.90
2018-10-21T01:06:10.394Z,99.90
2018-10-21T01:08:38.983Z,99.90
2018-10-21T01:11:07.607Z,99.90
2018-10-21T01:13:36.135Z,99.90
2018-10-21T01:16:04.769Z,99.90
2018-10-21T01:18:33.204Z,99.90
2018-10-21T01:21:01.972Z,99.90
2018-10-21T01:23:30.753Z,99.90
2018-10-21T01:25:59.176Z,99.90
2018-10-21T01:28:27.648Z,99.90
2018-10-21T01:30:56.192Z,99.90
2018-10-21T01:33:24.684Z,99.90
2018-10-21T01:35:53.110Z,99.90
2018-10-21T01:38:21.624Z,99.90
2018-10-21T01:40:52.008Z,99.90
2018-10-21T01:43:21.868Z,99.90
2018-10-21T01:45:50.525Z,99.90
2018-10-21T01:48:20.289Z,99.90
2018-10-21T01:50:48.809Z,99.90
2018-10-21T01:53:18.218Z,99.90
2018-10-21T01:55:46.671Z,99.90
2018-10-21T01:58:15.179Z,99.90
2018-10-21T02:00:43.868Z,99.90
2018-10-21T02:03:12.822Z,99.90
2018-10-21T02:05:42.417Z,99.90
2018-10-21T02:08:10.968Z,99.90
2018-10-21T02:10:39.403Z,99.90
2018-10-21T02:13:07.940Z,99.90
2018-10-21T02:15:36.570Z,99.90
2018-10-21T02:18:05.400Z,99.90
2018-10-21T02:20:33.852Z,99.90
2018-10-21T02:23:02.462Z,99.90
2018-10-21T02:25:31.054Z,99.90
2018-10-21T02:27:59.508Z,99.90
2018-10-21T02:30:29.110Z,99.90
2018-10-21T02:32:58.241Z,99.90
2018-10-21T02:35:26.913Z,99.90
2018-10-21T02:37:56.110Z,99.90
2018-10-21T02:41:37.686Z,99.90
2018-10-21T02:44:07.346Z,99.90
2018-10-21T02:46:36.644Z,99.90
2018-10-21T02:49:05.910Z,99.90
2018-10-21T02:51:34.384Z,99.90
2018-10-21T02:54:02.816Z,99.90
2018-10-21T02:56:31.600Z,99.90
2018-10-21T02:59:00.076Z,99.90
2018-10-21T03:01:28.512Z,99.90
2018-10-21T03:03:57.123Z,99.90
2018-10-21T03:06:25.553Z,99.90
2018-10-21T03:08:54.143Z,99.90
2018-10-21T03:11:22.741Z,99.90
2018-10-21T03:13:51.316Z,99.90
2018-10-21T03:16:19.907Z,99.90
2018-10-21T03:18:48.391Z,99.90
2018-10-21T03:21:16.909Z,99.90
2018-10-21T03:23:45.515Z,99.90
2018-10-21T03:26:14.107Z,99.90
2018-10-21T03:28:42.546Z,99.90
2018-10-21T03:31:10.980Z,99.90
2018-10-21T03:33:39.539Z,99.90
2018-10-21T03:36:08.122Z,99.90
2018-10-21T03:38:36.627Z,99.90
2018-10-21T03:41:05.187Z,99.90
2018-10-21T03:43:33.660Z,99.90
2018-10-21T03:46:02.137Z,99.90
2018-10-21T03:48:30.716Z,99.90
2018-10-21T03:50:59.187Z,99.90
2018-10-21T03:53:27.652Z,99.90
2018-10-21T03:55:56.122Z,99.90
2018-10-21T03:58:24.550Z,99.90
2018-10-21T04:00:53.049Z,99.90
2018-10-21T04:03:21.529Z,99.90
2018-10-21T04:05:50.011Z,99.90
2018-10-21T04:08:18.443Z,99.90
2018-10-21T04:10:46.926Z,99.90
2018-10-21T04:13:15.378Z,99.90
2018-10-21T04:15:43.949Z,99.90
2018-10-21T04:18:12.515Z,99.90
2018-10-21T04:20:41.059Z,99.90
2018-10-21T04:23:09.518Z,99.90
2018-10-21T04:25:38.978Z,99.90
2018-10-21T04:28:08.122Z,99.90
2018-10-21T04:30:37.946Z,99.90
2018-10-21T04:33:44.098Z,99.90
2018-10-21T04:36:14.412Z,99.90
2018-10-21T04:38:54.383Z,99.90
2018-10-21T04:41:23.001Z,99.90
2018-10-21T04:43:51.431Z,99.90
2018-10-21T04:46:19.880Z,99.90
2018-10-21T04:48:48.443Z,99.90
2018-10-21T04:51:16.910Z,99.90
2018-10-21T04:53:45.413Z,99.90
2018-10-21T04:56:13.928Z,99.90
2018-10-21T04:58:42.464Z,99.90
2018-10-21T05:01:10.929Z,99.90
2018-10-21T05:03:39.363Z,99.90
2018-10-21T05:06:07.903Z,99.90
2018-10-21T05:08:36.407Z,99.90
2018-10-21T05:11:04.977Z,99.90
2018-10-21T05:13:33.395Z,99.90
2018-10-21T05:16:01.896Z,99.90
2018-10-21T05:18:30.493Z,99.90
2018-10-21T05:20:58.943Z,99.90
2018-10-21T05:23:27.530Z,99.90
2018-10-21T05:25:56.048Z,99.90
2018-10-21T05:28:24.447Z,99.90
2018-10-21T05:30:52.878Z,99.90
2018-10-21T05:33:21.310Z,99.90
2018-10-21T05:35:49.766Z,99.90
2018-10-21T05:38:18.325Z,99.90
2018-10-21T05:40:46.790Z,99.90
2018-10-21T05:43:15.270Z,99.90
2018-10-21T05:45:43.731Z,99.90
2018-10-21T05:48:12.365Z,99.90
2018-10-21T05:50:40.839Z,99.90
2018-10-21T05:53:09.327Z,99.90
2018-10-21T05:55:37.758Z,99.90
2018-10-21T05:58:06.382Z,99.90
2018-10-21T06:00:34.874Z,99.90
2018-10-21T06:03:03.423Z,99.90
2018-10-21T06:05:35.964Z,99.90
2018-10-21T06:08:04.675Z,99.90
2018-10-21T06:10:33.142Z,99.90
2018-10-21T06:13:01.922Z,99.90
2018-10-21T06:15:30.346Z,99.90
2018-10-21T06:17:58.794Z,99.90
2018-10-21T06:20:28.694Z,99.90
2018-10-21T06:22:57.150Z,99.90
2018-10-21T06:25:25.678Z,99.90
2018-10-21T06:27:54.146Z,99.90
2018-10-21T06:30:22.562Z,99.90
2018-10-21T06:32:51.005Z,99.90
2018-10-21T06:35:19.427Z,99.90
2018-10-21T06:37:48.024Z,99.90
2018-10-21T06:40:16.439Z,99.90
2018-10-21T06:42:44.927Z,99.90
2018-10-21T06:45:13.420Z,99.90
2018-10-21T06:47:42.053Z,99.90
2018-10-21T06:50:13.767Z,99.90
2018-10-21T06:52:42.239Z,99.90
2018-10-21T06:55:11.017Z,99.90
2018-10-21T06:57:39.493Z,99.90
2018-10-21T07:00:08.526Z,99.90
2018-10-21T07:02:37.218Z,99.90
2018-10-21T07:05:15.632Z,99.90
2018-10-21T07:07:44.108Z,99.90
2018-10-21T07:10:12.630Z,99.30
2018-10-21T07:12:41.301Z,99.30
2018-10-21T07:15:09.808Z,99.50
2018-10-21T07:17:38.387Z,98.60
2018-10-21T07:20:06.913Z,99.00
2018-10-21T07:22:35.498Z,97.60
2018-10-21T07:25:04.111Z,97.60
2018-10-21T07:27:32.585Z,98.00
2018-10-21T07:30:01.137Z,98.10
2018-10-21T07:32:29.588Z,97.10
2018-10-21T07:34:58.145Z,97.20
2018-10-21T07:37:26.575Z,97.50
2018-10-21T07:39:55.123Z,98.10
2018-10-21T07:42:23.701Z,97.70
2018-10-21T07:44:52.133Z,97.40
2018-10-21T07:47:20.619Z,97.30
2018-10-21T07:49:49.235Z,97.80
2018-10-21T07:52:17.879Z,97.40
2018-10-21T07:54:46.743Z,96.90
2018-10-21T07:57:16.572Z,96.70
2018-10-21T07:59:45.458Z,96.50
2018-10-21T08:02:14.718Z,95.60
2018-10-21T08:04:43.204Z,94.60
2018-10-21T08:07:23.000Z,94.40
2018-10-21T08:09:51.571Z,93.90
2018-10-21T08:12:20.118Z,93.90
2018-10-21T08:14:48.752Z,93.30
2018-10-21T08:17:17.219Z,92.80
2018-10-21T08:19:45.699Z,93.30
2018-10-21T08:22:14.389Z,92.60
2018-10-21T08:24:42.971Z,93.00
2018-10-21T08:27:11.440Z,93.60
2018-10-21T08:29:40.059Z,92.70
2018-10-21T08:32:08.502Z,92.10
2018-10-21T08:34:37.025Z,91.70
2018-10-21T08:37:05.494Z,91.90
2018-10-21T08:39:33.937Z,91.40
2018-10-21T08:42:02.382Z,91.30
2018-10-21T08:44:30.842Z,91.70
2018-10-21T08:46:59.257Z,93.30
2018-10-21T08:49:28.104Z,92.70
2018-10-21T08:51:56.756Z,96.20
2018-10-21T08:54:25.363Z,94.00
2018-10-21T08:56:53.889Z,92.30
2018-10-21T08:59:22.369Z,91.30
2018-10-21T09:01:50.852Z,91.30
2018-10-21T09:04:19.600Z,92.00
2018-10-21T09:06:48.070Z,90.80
2018-10-21T09:09:16.577Z,89.00
2018-10-21T09:11:45.000Z,87.70
2018-10-21T09:14:13.562Z,87.00
2018-10-21T09:16:42.110Z,87.40
2018-10-21T09:19:10.731Z,85.70
2018-10-21T09:21:39.489Z,85.30
2018-10-21T09:24:08.017Z,83.50
2018-10-21T09:26:36.966Z,81.50
2018-10-21T09:29:05.690Z,80.10
2018-10-21T09:31:34.091Z,78.70
2018-10-21T09:34:02.589Z,80.00
2018-10-21T09:36:31.085Z,81.90
2018-10-21T09:38:59.801Z,82.00
2018-10-21T09:41:28.220Z,82.50
2018-10-21T09:43:56.762Z,81.70
2018-10-21T09:46:25.202Z,81.90
2018-10-21T09:48:53.747Z,81.60
2018-10-21T09:51:22.301Z,81.40
2018-10-21T09:53:51.003Z,81.50
2018-10-21T09:56:19.440Z,81.50
2018-10-21T09:58:48.568Z,78.70
2018-10-21T10:01:22.417Z,78.40
2018-10-21T10:03:50.931Z,78.60
2018-10-21T10:06:19.546Z,76.40
2018-10-21T10:08:48.375Z,75.00
2018-10-21T10:11:17.142Z,74.00
2018-10-21T10:13:45.667Z,75.40
2018-10-21T10:16:14.353Z,75.00
2018-10-21T10:18:42.982Z,74.20
2018-10-21T10:21:11.894Z,74.10
2018-10-21T10:23:40.416Z,72.20
2018-10-21T10:26:09.404Z,72.50
2018-10-21T10:28:37.901Z,71.00
2018-10-21T10:31:06.499Z,69.80
2018-10-21T10:33:35.119Z,68.50
2018-10-21T10:36:03.683Z,68.20
2018-10-21T10:38:32.275Z,69.00
2018-10-21T10:41:00.707Z,68.60
2018-10-21T10:43:29.327Z,66.90
2018-10-21T10:45:57.872Z,66.70
2018-10-21T10:48:26.430Z,66.90
2018-10-21T10:50:54.899Z,65.70
2018-10-21T10:53:23.298Z,63.00
2018-10-21T10:55:52.696Z,60.60
2018-10-21T10:58:21.234Z,57.00
2018-10-21T11:00:49.674Z,55.30
2018-10-21T11:03:18.160Z,56.10
2018-10-21T11:05:46.699Z,57.80
2018-10-21T11:08:15.199Z,58.30
2018-10-21T11:10:43.644Z,58.70
2018-10-21T11:13:12.220Z,58.40
2018-10-21T11:15:40.819Z,59.00
2018-10-21T11:18:09.319Z,57.20
2018-10-21T11:20:37.851Z,57.40
2018-10-21T11:23:06.347Z,56.60
2018-10-21T11:25:34.762Z,56.30
2018-10-21T11:28:03.255Z,56.20
2018-10-21T11:30:31.876Z,54.80
2018-10-21T11:33:00.262Z,53.60
2018-10-21T11:35:28.766Z,52.70
2018-10-21T11:37:57.761Z,52.30
2018-10-21T11:40:26.478Z,51.20
2018-10-21T11:42:54.926Z,50.70
2018-10-21T11:45:23.544Z,50.30
2018-10-21T11:47:51.995Z,50.30
2018-10-21T11:50:20.430Z,49.30
2018-10-21T11:52:48.895Z,48.50
2018-10-21T11:55:17.436Z,47.70
2018-10-21T11:57:45.922Z,47.60
2018-10-21T12:00:14.447Z,47.50
2018-10-21T12:02:42.886Z,46.30
2018-10-21T12:05:11.518Z,46.00
2018-10-21T12:07:40.023Z,45.60
2018-10-21T12:10:08.900Z,45.40
2018-10-21T12:12:37.515Z,46.80
2018-10-21T12:15:06.088Z,46.60
2018-10-21T12:17:34.535Z,47.10
2018-10-21T12:20:03.026Z,46.70
2018-10-21T12:22:31.630Z,46.60
2018-10-21T12:25:00.092Z,46.40
2018-10-21T12:27:28.747Z,47.00
2018-10-21T12:29:57.194Z,47.20
2018-10-21T12:32:25.883Z,45.00
2018-10-21T12:34:54.300Z,44.30
2018-10-21T12:37:22.736Z,44.50
2018-10-21T12:39:51.223Z,44.50
2018-10-21T12:42:19.664Z,46.20
2018-10-21T12:44:48.204Z,46.70
2018-10-21T12:47:16.807Z,47.10
2018-10-21T12:49:45.329Z,47.30
2018-10-21T12:52:13.819Z,47.00
2018-10-21T12:54:42.465Z,47.40
2018-10-21T12:57:11.043Z,47.80
2018-10-21T12:59:39.478Z,49.00
2018-10-21T13:02:07.923Z,48.50
2018-10-21T13:04:36.371Z,47.60
2018-10-21T13:07:04.937Z,48.00
2018-10-21T13:09:33.511Z,47.90
2018-10-21T13:12:02.162Z,48.90
2018-10-21T13:14:30.578Z,48.70
2018-10-21T13:16:59.137Z,49.70
2018-10-21T13:19:27.608Z,51.80
2018-10-21T13:21:56.064Z,52.60
2018-10-21T13:24:24.675Z,51.70
2018-10-21T13:26:53.111Z,51.40
2018-10-21T13:29:21.527Z,52.50
2018-10-21T13:31:49.959Z,53.20
2018-10-21T13:34:18.437Z,51.90
2018-10-21T13:36:47.098Z,51.00
2018-10-21T13:39:15.554Z,50.30
2018-10-21T13:41:45.062Z,48.90
2018-10-21T13:44:13.586Z,47.60
2018-10-21T13:46:42.547Z,48.70
2018-10-21T13:49:11.040Z,50.10
2018-10-21T13:51:39.800Z,50.80
2018-10-21T13:54:08.343Z,52.50
2018-10-21T13:56:36.805Z,52.30
2018-10-21T13:59:05.526Z,50.60
2018-10-21T14:01:34.087Z,49.20
2018-10-21T14:04:02.771Z,48.20
2018-10-21T14:06:31.801Z,46.30
2018-10-21T14:09:00.255Z,46.10
2018-10-21T14:11:28.662Z,48.20
2018-10-21T14:13:57.146Z,49.60
2018-10-21T14:16:25.650Z,50.50
2018-10-21T14:18:54.222Z,52.70
2018-10-21T14:21:22.710Z,54.40
2018-10-21T14:23:51.190Z,54.30
2018-10-21T14:26:19.622Z,54.90
2018-10-21T14:28:48.089Z,54.60
2018-10-21T14:31:16.942Z,51.30
2018-10-21T14:33:45.341Z,50.40
2018-10-21T14:36:13.854Z,50.20
2018-10-21T14:38:42.379Z,47.40
2018-10-21T14:41:10.827Z,47.10
2018-10-21T14:43:39.279Z,46.60
2018-10-21T14:46:07.754Z,46.60
2018-10-21T14:48:36.332Z,47.80
2018-10-21T14:51:04.838Z,47.80
2018-10-21T14:53:33.421Z,47.00
2018-10-21T14:56:01.870Z,42.50
2018-10-21T14:58:30.540Z,38.60
2018-10-21T15:00:58.966Z,35.70
2018-10-21T15:03:28.010Z,33.20
2018-10-21T15:05:57.248Z,31.30
2018-10-21T15:08:26.480Z,30.60
2018-10-21T15:10:54.916Z,30.60
2018-10-21T15:13:23.359Z,30.10
2018-10-21T15:15:51.793Z,31.90
2018-10-21T15:18:20.345Z,31.80
2018-10-21T15:20:48.818Z,32.30
2018-10-21T15:23:17.330Z,33.30
2018-10-21T15:25:45.940Z,34.30
2018-10-21T15:28:14.448Z,36.30
2018-10-21T15:30:42.978Z,37.60
2018-10-21T15:33:11.409Z,40.70
2018-10-21T15:35:39.836Z,42.70
2018-10-21T15:38:08.912Z,45.60
2018-10-21T15:40:37.473Z,47.60
2018-10-21T15:43:05.933Z,50.10
2018-10-21T15:45:34.564Z,50.30
2018-10-21T15:48:03.223Z,52.10
2018-10-21T15:50:31.674Z,54.40
2018-10-21T15:53:00.310Z,56.10
2018-10-21T15:55:28.805Z,57.90
2018-10-21T15:57:57.275Z,58.90
2018-10-21T16:00:25.951Z,59.80
2018-10-21T16:02:54.512Z,60.70
2018-10-21T16:05:22.968Z,60.50
2018-10-21T16:07:51.356Z,60.90
2018-10-21T16:10:19.771Z,62.90
2018-10-21T16:12:48.192Z,63.60
2018-10-21T16:15:17.034Z,65.30
2018-10-21T16:17:46.147Z,65.10
2018-10-21T16:20:14.733Z,65.60
2018-10-21T16:22:44.143Z,67.00
2018-10-21T16:25:14.017Z,67.80
2018-10-21T16:27:42.794Z,66.80
2018-10-21T16:30:15.841Z,67.00
2018-10-21T16:32:44.880Z,69.00
2018-10-21T16:35:13.834Z,70.60
2018-10-21T16:37:42.406Z,73.00
2018-10-21T16:40:13.168Z,76.00
2018-10-21T16:42:41.774Z,75.30
2018-10-21T16:45:11.177Z,77.00
2018-10-21T16:47:40.054Z,91.90
2018-10-21T16:50:13.911Z,77.90
2018-10-21T16:52:43.376Z,78.70
2018-10-21T16:55:12.591Z,77.50
2018-10-21T16:57:41.045Z,77.10
2018-10-21T17:00:12.316Z,76.40
2018-10-21T17:02:41.075Z,78.20
2018-10-21T17:05:09.942Z,75.90
2018-10-21T17:07:38.555Z,77.60
2018-10-21T17:10:08.292Z,76.50
2018-10-21T17:12:36.749Z,77.70
2018-10-21T17:15:06.001Z,77.80
2018-10-21T17:17:34.442Z,82.00
2018-10-21T17:20:02.899Z,78.50
2018-10-21T17:22:31.338Z,83.10
2018-10-21T17:25:00.077Z,81.30
2018-10-21T17:27:28.747Z,81.80
2018-10-21T17:29:57.170Z,80.50
2018-10-21T17:32:25.578Z,80.50
2018-10-21T17:34:54.008Z,81.00
2018-10-21T17:37:22.439Z,80.30
2018-10-21T17:39:50.961Z,81.10
2018-10-21T17:42:19.450Z,81.50
2018-10-21T17:44:48.071Z,81.50
2018-10-21T17:47:16.564Z,82.00
2018-10-21T17:49:45.052Z,83.00
2018-10-21T17:52:13.516Z,82.50
2018-10-21T17:54:42.087Z,82.70
2018-10-21T17:57:10.711Z,82.60
2018-10-21T17:59:39.502Z,81.00
2018-10-21T18:02:07.973Z,83.10
2018-10-21T18:04:36.434Z,83.50
2018-10-21T18:07:05.613Z,83.80
2018-10-21T18:09:34.262Z,83.50
2018-10-21T18:12:02.816Z,84.70
2018-10-21T18:14:31.319Z,84.20
2018-10-21T18:16:59.815Z,83.90
2018-10-21T18:19:28.431Z,84.60
2018-10-21T18:21:56.886Z,84.90
2018-10-21T18:24:25.547Z,84.40
2018-10-21T18:26:53.983Z,85.90
2018-10-21T18:29:22.503Z,83.70
2018-10-21T18:31:50.947Z,84.80
2018-10-21T18:34:19.413Z,83.20
2018-10-21T18:36:47.843Z,84.40
2018-10-21T18:39:16.278Z,84.70
2018-10-21T18:41:44.735Z,84.30
2018-10-21T18:44:13.196Z,85.40
2018-10-21T18:46:41.644Z,88.60
2018-10-21T18:49:10.132Z,90.40
2018-10-21T18:51:38.743Z,88.40
2018-10-21T18:54:07.179Z,86.60
2018-10-21T18:56:35.612Z,86.30
2018-10-21T18:59:04.058Z,87.90
2018-10-21T19:01:32.691Z,87.80
2018-10-21T19:04:01.233Z,87.60
2018-10-21T19:06:30.047Z,87.20
2018-10-21T19:08:58.467Z,86.20
2018-10-21T19:11:26.973Z,88.20
2018-10-21T19:13:55.407Z,85.20
2018-10-21T19:16:23.880Z,86.00
2018-10-21T19:18:52.382Z,84.20
2018-10-21T19:21:21.018Z,86.70
2018-10-21T19:23:49.454Z,87.20
2018-10-21T19:26:17.896Z,84.10
2018-10-21T19:28:46.419Z,87.50
2018-10-21T19:31:15.007Z,86.90
2018-10-21T19:33:44.097Z,85.30
2018-10-21T19:36:12.761Z,84.40
2018-10-21T19:38:41.171Z,85.20
2018-10-21T19:41:09.739Z,84.90
2018-10-21T19:43:38.227Z,86.60
2018-10-21T19:46:09.529Z,86.10
2018-10-21T19:48:38.216Z,87.60
2018-10-21T19:51:06.817Z,87.60
2018-10-21T19:53:35.302Z,87.90
2018-10-21T19:56:05.522Z,86.90
2018-10-21T19:58:35.156Z,87.20
2018-10-21T20:01:04.162Z,87.60
2018-10-21T20:03:32.878Z,90.00
2018-10-21T20:06:01.376Z,87.40
2018-10-21T20:08:29.927Z,88.00
2018-10-21T20:10:58.488Z,88.20
2018-10-21T20:13:27.411Z,88.60
2018-10-21T20:15:56.097Z,88.10
2018-10-21T20:18:25.390Z,88.30
2018-10-21T20:20:53.972Z,88.60
2018-10-21T20:23:22.611Z,89.60
2018-10-21T20:25:51.167Z,89.90
2018-10-21T20:28:19.622Z,90.00
2018-10-21T20:30:48.100Z,90.00
2018-10-21T20:33:16.870Z,90.30
2018-10-21T20:35:45.407Z,90.40
2018-10-21T20:38:13.915Z,90.90
2018-10-21T20:40:42.543Z,91.00
2018-10-21T20:43:11.030Z,91.00
2018-10-21T20:45:39.472Z,90.80
2018-10-21T20:48:08.153Z,91.30
2018-10-21T20:50:36.749Z,91.10
2018-10-21T20:53:05.763Z,91.50
2018-10-21T20:55:34.210Z,91.70
2018-10-21T20:58:02.755Z,91.70
2018-10-21T21:00:31.339Z,91.70
2018-10-21T21:02:59.784Z,92.00
2018-10-21T21:05:28.346Z,92.00
2018-10-21T21:07:56.887Z,92.30
2018-10-21T21:10:25.325Z,91.90
2018-10-21T21:12:53.918Z,91.90
2018-10-21T21:15:22.798Z,92.30
2018-10-21T21:17:51.284Z,91.90
2018-10-21T21:20:19.817Z,92.30
2018-10-21T21:22:48.279Z,92.00
2018-10-21T21:25:16.727Z,92.30
2018-10-21T21:27:45.188Z,92.70
2018-10-21T21:30:13.700Z,92.50
2018-10-21T21:32:42.246Z,92.70
2018-10-21T21:35:10.675Z,92.40
2018-10-21T21:37:39.327Z,92.80
2018-10-21T21:40:08.591Z,92.60
2018-10-21T21:42:37.584Z,92.70
2018-10-21T21:45:06.352Z,92.90
2018-10-21T21:47:34.782Z,93.20
2018-10-21T21:50:03.239Z,93.00
2018-10-21T21:52:31.674Z,92.80
2018-10-21T21:55:00.155Z,92.90
2018-10-21T21:57:28.573Z,92.70
2018-10-21T21:59:57.039Z,92.90
2018-10-21T22:02:25.639Z,92.70
2018-10-21T22:04:54.076Z,92.90
2018-10-21T22:07:22.483Z,93.20
2018-10-21T22:09:50.944Z,93.10
2018-10-21T22:12:19.403Z,93.40
2018-10-21T22:14:47.979Z,93.60
2018-10-21T22:17:19.410Z,93.40
2018-10-21T22:19:47.867Z,93.50
2018-10-21T22:22:16.494Z,93.30
2018-10-21T22:24:45.137Z,93.60
2018-10-21T22:27:13.547Z,93.60
2018-10-21T22:29:42.065Z,93.30
2018-10-21T22:32:10.585Z,93.50
2018-10-21T22:34:39.102Z,93.40
2018-10-21T22:37:07.631Z,93.20
2018-10-21T22:39:36.798Z,93.20
2018-10-21T22:42:05.396Z,93.50
2018-10-21T22:44:34.115Z,93.20
2018-10-21T22:47:02.593Z,93.30
2018-10-21T22:49:31.368Z,93.70
2018-10-21T22:51:59.897Z,93.90
2018-10-21T22:54:28.928Z,93.40
2018-10-21T22:56:57.370Z,94.10
2018-10-21T22:59:25.986Z,93.80
2018-10-21T23:01:54.483Z,93.80
2018-10-21T23:04:23.084Z,93.60
2018-10-21T23:06:51.606Z,93.80
2018-10-21T23:09:27.562Z,94.00
2018-10-21T23:11:56.041Z,94.30
2018-10-21T23:14:24.682Z,94.40
2018-10-21T23:16:53.137Z,94.40
2018-10-21T23:19:32.818Z,94.40
2018-10-21T23:22:01.337Z,94.50
2018-10-21T23:24:29.988Z,94.60
2018-10-21T23:26:58.428Z,94.60
2018-10-21T23:29:27.024Z,94.90
2018-10-21T23:31:55.494Z,95.20
2018-10-21T23:34:24.181Z,95.60
2018-10-21T23:36:52.723Z,95.40
2018-10-21T23:39:21.335Z,95.40
2018-10-21T23:41:49.937Z,95.50
2018-10-21T23:44:18.720Z,95.30
2018-10-21T23:46:47.324Z,95.60
2018-10-21T23:49:17.153Z,95.40
2018-10-21T23:51:45.709Z,95.30
2018-10-21T23:54:14.299Z,95.70
2018-10-21T23:56:42.879Z,95.80
2018-10-21T23:59:11.952Z,95.60
